sensor_id;sensor_type;location;lat;lon;timestamp;P1;durP1;ratioP1;P2;durP2;ratioP2
74369;SDS011;62805;44.644;10.942;2023-02-01T00:01:55;11.82;;;5.80;;
74369;SDS011;62805;44.644;10.942;2023-02-01T00:04:21;12.38;;;5.53;;
74369;SDS011;62805;44.644;10.942;2023-02-01T00:06:46;9.65;;;5.07;;
74369;SDS011;62805;44.644;10.942;2023-02-01T00:09:12;10.57;;;5.20;;
74369;SDS011;62805;44.644;10.942;2023-02-01T00:11:38;10.25;;;5.00;;
74369;SDS011;62805;44.644;10.942;2023-02-01T00:14:03;10.65;;;4.75;;
74369;SDS011;62805;44.644;10.942;2023-02-01T00:16:29;10.52;;;4.75;;
74369;SDS011;62805;44.644;10.942;2023-02-01T00:19:00;14.43;;;4.88;;
74369;SDS011;62805;44.644;10.942;2023-02-01T00:21:27;11.45;;;4.75;;
74369;SDS011;62805;44.644;10.942;2023-02-01T00:23:53;10.95;;;4.82;;
74369;SDS011;62805;44.644;10.942;2023-02-01T00:26:20;11.65;;;4.72;;
74369;SDS011;62805;44.644;10.942;2023-02-01T00:28:48;8.70;;;4.45;;
74369;SDS011;62805;44.644;10.942;2023-02-01T00:31:14;10.38;;;4.82;;
74369;SDS011;62805;44.644;10.942;2023-02-01T00:33:40;12.25;;;4.53;;
74369;SDS011;62805;44.644;10.942;2023-02-01T00:36:06;8.40;;;3.80;;
74369;SDS011;62805;44.644;10.942;2023-02-01T00:38:32;8.38;;;4.20;;
74369;SDS011;62805;44.644;10.942;2023-02-01T00:41:02;9.20;;;4.07;;
74369;SDS011;62805;44.644;10.942;2023-02-01T00:43:30;8.13;;;3.55;;
74369;SDS011;62805;44.644;10.942;2023-02-01T00:45:56;8.68;;;3.70;;
74369;SDS011;62805;44.644;10.942;2023-02-01T00:48:21;9.57;;;4.07;;
74369;SDS011;62805;44.644;10.942;2023-02-01T00:50:47;8.43;;;3.65;;
74369;SDS011;62805;44.644;10.942;2023-02-01T00:53:12;7.27;;;3.73;;
74369;SDS011;62805;44.644;10.942;2023-02-01T00:55:38;9.50;;;3.85;;
74369;SDS011;62805;44.644;10.942;2023-02-01T00:58:03;8.18;;;3.65;;
74369;SDS011;62805;44.644;10.942;2023-02-01T01:00:30;10.23;;;3.75;;
74369;SDS011;62805;44.644;10.942;2023-02-01T01:02:57;8.93;;;4.03;;
74369;SDS011;62805;44.644;10.942;2023-02-01T01:05:22;11.18;;;4.03;;
74369;SDS011;62805;44.644;10.942;2023-02-01T01:07:48;8.60;;;3.47;;
74369;SDS011;62805;44.644;10.942;2023-02-01T01:10:14;9.55;;;3.13;;
74369;SDS011;62805;44.644;10.942;2023-02-01T01:12:40;9.48;;;3.30;;
74369;SDS011;62805;44.644;10.942;2023-02-01T01:15:06;7.82;;;4.13;;
74369;SDS011;62805;44.644;10.942;2023-02-01T01:17:32;8.07;;;3.33;;
74369;SDS011;62805;44.644;10.942;2023-02-01T01:19:57;6.57;;;3.25;;
74369;SDS011;62805;44.644;10.942;2023-02-01T01:22:23;7.15;;;3.60;;
74369;SDS011;62805;44.644;10.942;2023-02-01T01:24:48;7.60;;;3.80;;
74369;SDS011;62805;44.644;10.942;2023-02-01T01:27:14;8.48;;;3.55;;
74369;SDS011;62805;44.644;10.942;2023-02-01T01:29:39;7.53;;;3.47;;
74369;SDS011;62805;44.644;10.942;2023-02-01T01:32:05;10.07;;;4.00;;
74369;SDS011;62805;44.644;10.942;2023-02-01T01:34:30;8.35;;;3.88;;
74369;SDS011;62805;44.644;10.942;2023-02-01T01:36:56;10.13;;;3.80;;
74369;SDS011;62805;44.644;10.942;2023-02-01T01:39:21;9.63;;;3.92;;
74369;SDS011;62805;44.644;10.942;2023-02-01T01:41:46;10.23;;;3.88;;
74369;SDS011;62805;44.644;10.942;2023-02-01T01:47:15;10.93;;;4.00;;
74369;SDS011;62805;44.644;10.942;2023-02-01T01:49:41;8.45;;;4.13;;
74369;SDS011;62805;44.644;10.942;2023-02-01T01:52:07;8.88;;;3.90;;
74369;SDS011;62805;44.644;10.942;2023-02-01T01:54:34;9.88;;;4.18;;
74369;SDS011;62805;44.644;10.942;2023-02-01T01:57:10;8.95;;;4.00;;
74369;SDS011;62805;44.644;10.942;2023-02-01T01:59:39;11.40;;;4.50;;
74369;SDS011;62805;44.644;10.942;2023-02-01T02:02:06;9.80;;;4.10;;
74369;SDS011;62805;44.644;10.942;2023-02-01T02:04:32;9.68;;;4.57;;
74369;SDS011;62805;44.644;10.942;2023-02-01T02:07:02;10.43;;;4.28;;
74369;SDS011;62805;44.644;10.942;2023-02-01T02:09:30;9.68;;;4.50;;
74369;SDS011;62805;44.644;10.942;2023-02-01T02:11:55;7.83;;;3.90;;
74369;SDS011;62805;44.644;10.942;2023-02-01T02:14:21;9.95;;;3.67;;
74369;SDS011;62805;44.644;10.942;2023-02-01T02:16:51;9.05;;;4.03;;
74369;SDS011;62805;44.644;10.942;2023-02-01T02:27:22;9.68;;;4.57;;
74369;SDS011;62805;44.644;10.942;2023-02-01T02:38:04;9.48;;;4.00;;
74369;SDS011;62805;44.644;10.942;2023-02-01T02:44:01;10.23;;;4.38;;
74369;SDS011;62805;44.644;10.942;2023-02-01T02:46:52;11.27;;;4.30;;
74369;SDS011;62805;44.644;10.942;2023-02-01T02:52:35;10.50;;;4.28;;
74369;SDS011;62805;44.644;10.942;2023-02-01T02:55:21;11.68;;;3.72;;
74369;SDS011;62805;44.644;10.942;2023-02-01T02:57:47;14.13;;;4.57;;
74369;SDS011;62805;44.644;10.942;2023-02-01T03:00:31;8.50;;;4.35;;
74369;SDS011;62805;44.644;10.942;2023-02-01T03:03:16;10.35;;;4.25;;
74369;SDS011;62805;44.644;10.942;2023-02-01T03:05:59;12.75;;;4.95;;
74369;SDS011;62805;44.644;10.942;2023-02-01T03:08:29;9.75;;;3.90;;
74369;SDS011;62805;44.644;10.942;2023-02-01T03:16:24;11.65;;;4.10;;
74369;SDS011;62805;44.644;10.942;2023-02-01T03:21:48;8.40;;;3.92;;
74369;SDS011;62805;44.644;10.942;2023-02-01T03:24:22;9.50;;;4.47;;
74369;SDS011;62805;44.644;10.942;2023-02-01T03:26:58;12.63;;;4.97;;
74369;SDS011;62805;44.644;10.942;2023-02-01T03:29:48;12.40;;;4.75;;
74369;SDS011;62805;44.644;10.942;2023-02-01T03:32:17;10.07;;;4.50;;
74369;SDS011;62805;44.644;10.942;2023-02-01T03:34:43;13.18;;;5.35;;
74369;SDS011;62805;44.644;10.942;2023-02-01T03:37:10;12.38;;;5.30;;
74369;SDS011;62805;44.644;10.942;2023-02-01T03:39:39;11.60;;;4.85;;
74369;SDS011;62805;44.644;10.942;2023-02-01T03:42:12;10.40;;;4.88;;
74369;SDS011;62805;44.644;10.942;2023-02-01T03:44:57;11.85;;;5.15;;
74369;SDS011;62805;44.644;10.942;2023-02-01T03:47:41;8.57;;;4.72;;
74369;SDS011;62805;44.644;10.942;2023-02-01T03:50:09;11.75;;;5.32;;
74369;SDS011;62805;44.644;10.942;2023-02-01T03:52:41;13.07;;;5.45;;
74369;SDS011;62805;44.644;10.942;2023-02-01T03:55:08;11.98;;;5.30;;
74369;SDS011;62805;44.644;10.942;2023-02-01T03:57:36;11.43;;;5.68;;
74369;SDS011;62805;44.644;10.942;2023-02-01T04:00:25;11.02;;;4.70;;
74369;SDS011;62805;44.644;10.942;2023-02-01T04:05:16;11.68;;;5.43;;
74369;SDS011;62805;44.644;10.942;2023-02-01T04:07:42;10.90;;;4.43;;
74369;SDS011;62805;44.644;10.942;2023-02-01T04:10:08;13.38;;;4.60;;
74369;SDS011;62805;44.644;10.942;2023-02-01T04:12:34;9.43;;;4.65;;
74369;SDS011;62805;44.644;10.942;2023-02-01T04:14:59;10.55;;;4.53;;
74369;SDS011;62805;44.644;10.942;2023-02-01T04:17:25;10.85;;;4.65;;
74369;SDS011;62805;44.644;10.942;2023-02-01T04:19:50;9.63;;;4.20;;
74369;SDS011;62805;44.644;10.942;2023-02-01T04:22:16;10.50;;;4.95;;
74369;SDS011;62805;44.644;10.942;2023-02-01T04:24:42;9.00;;;4.18;;
74369;SDS011;62805;44.644;10.942;2023-02-01T04:27:08;8.77;;;4.30;;
74369;SDS011;62805;44.644;10.942;2023-02-01T04:29:33;9.77;;;4.30;;
74369;SDS011;62805;44.644;10.942;2023-02-01T04:31:59;8.10;;;4.10;;
74369;SDS011;62805;44.644;10.942;2023-02-01T04:34:24;12.38;;;4.82;;
74369;SDS011;62805;44.644;10.942;2023-02-01T04:36:50;12.47;;;4.83;;
74369;SDS011;62805;44.644;10.942;2023-02-01T04:39:16;10.27;;;4.80;;
74369;SDS011;62805;44.644;10.942;2023-02-01T04:41:41;11.80;;;4.82;;
74369;SDS011;62805;44.644;10.942;2023-02-01T04:44:09;11.88;;;4.50;;
74369;SDS011;62805;44.644;10.942;2023-02-01T04:46:39;11.70;;;4.80;;
74369;SDS011;62805;44.644;10.942;2023-02-01T04:49:04;12.60;;;4.90;;
74369;SDS011;62805;44.644;10.942;2023-02-01T04:51:30;11.80;;;5.13;;
74369;SDS011;62805;44.644;10.942;2023-02-01T04:53:55;9.30;;;4.50;;
74369;SDS011;62805;44.644;10.942;2023-02-01T04:56:21;12.50;;;4.82;;
74369;SDS011;62805;44.644;10.942;2023-02-01T04:58:47;12.98;;;5.22;;
74369;SDS011;62805;44.644;10.942;2023-02-01T05:01:13;10.98;;;5.05;;
74369;SDS011;62805;44.644;10.942;2023-02-01T05:03:39;11.80;;;4.68;;
74369;SDS011;62805;44.644;10.942;2023-02-01T05:06:04;9.45;;;4.32;;
74369;SDS011;62805;44.644;10.942;2023-02-01T05:08:30;9.65;;;4.32;;
74369;SDS011;62805;44.644;10.942;2023-02-01T05:10:56;10.05;;;4.25;;
74369;SDS011;62805;44.644;10.942;2023-02-01T05:13:24;10.43;;;4.50;;
74369;SDS011;62805;44.644;10.942;2023-02-01T05:16:08;9.73;;;4.07;;
74369;SDS011;62805;44.644;10.942;2023-02-01T05:18:34;8.85;;;4.18;;
74369;SDS011;62805;44.644;10.942;2023-02-01T05:20:59;12.13;;;4.63;;
74369;SDS011;62805;44.644;10.942;2023-02-01T05:23:25;11.02;;;5.00;;
74369;SDS011;62805;44.644;10.942;2023-02-01T05:25:52;9.25;;;4.15;;
74369;SDS011;62805;44.644;10.942;2023-02-01T05:28:17;10.82;;;4.40;;
74369;SDS011;62805;44.644;10.942;2023-02-01T05:30:43;8.07;;;4.00;;
74369;SDS011;62805;44.644;10.942;2023-02-01T05:33:08;9.13;;;4.20;;
74369;SDS011;62805;44.644;10.942;2023-02-01T05:35:33;13.73;;;4.43;;
74369;SDS011;62805;44.644;10.942;2023-02-01T05:37:59;11.30;;;4.35;;
74369;SDS011;62805;44.644;10.942;2023-02-01T05:40:24;10.93;;;3.83;;
74369;SDS011;62805;44.644;10.942;2023-02-01T05:42:50;10.43;;;4.63;;
74369;SDS011;62805;44.644;10.942;2023-02-01T05:45:15;13.80;;;4.85;;
74369;SDS011;62805;44.644;10.942;2023-02-01T05:47:41;7.72;;;3.72;;
74369;SDS011;62805;44.644;10.942;2023-02-01T05:50:07;10.18;;;4.10;;
74369;SDS011;62805;44.644;10.942;2023-02-01T05:52:32;10.18;;;4.10;;
74369;SDS011;62805;44.644;10.942;2023-02-01T05:54:58;11.32;;;4.75;;
74369;SDS011;62805;44.644;10.942;2023-02-01T05:57:24;11.25;;;4.30;;
74369;SDS011;62805;44.644;10.942;2023-02-01T05:59:49;9.80;;;4.15;;
74369;SDS011;62805;44.644;10.942;2023-02-01T06:02:15;11.10;;;4.82;;
74369;SDS011;62805;44.644;10.942;2023-02-01T06:04:41;13.35;;;4.75;;
74369;SDS011;62805;44.644;10.942;2023-02-01T06:07:07;15.48;;;4.95;;
74369;SDS011;62805;44.644;10.942;2023-02-01T06:09:34;9.60;;;4.25;;
74369;SDS011;62805;44.644;10.942;2023-02-01T06:12:00;12.90;;;5.07;;
74369;SDS011;62805;44.644;10.942;2023-02-01T06:14:26;10.25;;;4.65;;
74369;SDS011;62805;44.644;10.942;2023-02-01T06:16:52;14.05;;;5.47;;
74369;SDS011;62805;44.644;10.942;2023-02-01T06:19:18;15.40;;;4.97;;
74369;SDS011;62805;44.644;10.942;2023-02-01T06:21:44;9.93;;;4.35;;
74369;SDS011;62805;44.644;10.942;2023-02-01T06:24:09;10.27;;;4.38;;
74369;SDS011;62805;44.644;10.942;2023-02-01T06:26:35;11.25;;;4.68;;
74369;SDS011;62805;44.644;10.942;2023-02-01T06:29:01;12.13;;;5.10;;
74369;SDS011;62805;44.644;10.942;2023-02-01T06:31:26;13.27;;;4.95;;
74369;SDS011;62805;44.644;10.942;2023-02-01T06:33:52;9.33;;;4.43;;
74369;SDS011;62805;44.644;10.942;2023-02-01T06:36:18;10.77;;;4.43;;
74369;SDS011;62805;44.644;10.942;2023-02-01T06:38:46;14.23;;;4.90;;
74369;SDS011;62805;44.644;10.942;2023-02-01T06:41:11;12.05;;;4.30;;
74369;SDS011;62805;44.644;10.942;2023-02-01T06:43:37;15.05;;;4.65;;
74369;SDS011;62805;44.644;10.942;2023-02-01T06:46:03;10.50;;;4.72;;
74369;SDS011;62805;44.644;10.942;2023-02-01T06:48:30;10.25;;;4.60;;
74369;SDS011;62805;44.644;10.942;2023-02-01T06:50:56;11.48;;;4.60;;
74369;SDS011;62805;44.644;10.942;2023-02-01T06:53:21;11.23;;;4.93;;
74369;SDS011;62805;44.644;10.942;2023-02-01T06:55:53;14.90;;;5.80;;
74369;SDS011;62805;44.644;10.942;2023-02-01T06:58:23;16.60;;;6.40;;
74369;SDS011;62805;44.644;10.942;2023-02-01T07:00:48;20.10;;;6.53;;
74369;SDS011;62805;44.644;10.942;2023-02-01T07:03:14;10.57;;;5.65;;
74369;SDS011;62805;44.644;10.942;2023-02-01T07:05:39;14.57;;;6.68;;
74369;SDS011;62805;44.644;10.942;2023-02-01T07:08:04;16.60;;;6.57;;
74369;SDS011;62805;44.644;10.942;2023-02-01T07:10:30;16.67;;;6.63;;
74369;SDS011;62805;44.644;10.942;2023-02-01T07:12:56;15.07;;;6.68;;
74369;SDS011;62805;44.644;10.942;2023-02-01T07:15:22;22.15;;;6.63;;
74369;SDS011;62805;44.644;10.942;2023-02-01T07:17:48;13.82;;;6.22;;
74369;SDS011;62805;44.644;10.942;2023-02-01T07:20:14;19.63;;;7.05;;
74369;SDS011;62805;44.644;10.942;2023-02-01T07:22:40;18.42;;;7.53;;
74369;SDS011;62805;44.644;10.942;2023-02-01T07:25:06;19.08;;;7.53;;
74369;SDS011;62805;44.644;10.942;2023-02-01T07:27:33;17.52;;;8.05;;
74369;SDS011;62805;44.644;10.942;2023-02-01T07:29:59;18.80;;;7.85;;
74369;SDS011;62805;44.644;10.942;2023-02-01T07:32:27;20.83;;;8.40;;
74369;SDS011;62805;44.644;10.942;2023-02-01T07:34:53;17.80;;;7.68;;
74369;SDS011;62805;44.644;10.942;2023-02-01T07:37:19;17.38;;;7.97;;
74369;SDS011;62805;44.644;10.942;2023-02-01T07:39:44;15.50;;;8.40;;
74369;SDS011;62805;44.644;10.942;2023-02-01T07:42:09;17.03;;;8.27;;
74369;SDS011;62805;44.644;10.942;2023-02-01T07:44:35;22.55;;;8.43;;
74369;SDS011;62805;44.644;10.942;2023-02-01T07:47:00;16.03;;;8.17;;
74369;SDS011;62805;44.644;10.942;2023-02-01T07:49:25;14.07;;;7.55;;
74369;SDS011;62805;44.644;10.942;2023-02-01T07:51:51;14.43;;;5.70;;
74369;SDS011;62805;44.644;10.942;2023-02-01T07:54:17;11.80;;;4.93;;
74369;SDS011;62805;44.644;10.942;2023-02-01T07:56:43;10.00;;;3.40;;
74369;SDS011;62805;44.644;10.942;2023-02-01T07:59:08;12.65;;;5.00;;
74369;SDS011;62805;44.644;10.942;2023-02-01T08:01:34;11.55;;;4.95;;
74369;SDS011;62805;44.644;10.942;2023-02-01T08:04:00;10.52;;;4.32;;
74369;SDS011;62805;44.644;10.942;2023-02-01T08:06:27;19.08;;;5.22;;
74369;SDS011;62805;44.644;10.942;2023-02-01T08:08:53;13.13;;;5.10;;
74369;SDS011;62805;44.644;10.942;2023-02-01T08:11:19;13.82;;;4.32;;
74369;SDS011;62805;44.644;10.942;2023-02-01T08:13:46;12.35;;;5.30;;
74369;SDS011;62805;44.644;10.942;2023-02-01T08:16:12;12.73;;;4.63;;
74369;SDS011;62805;44.644;10.942;2023-02-01T08:18:38;13.80;;;5.15;;
74369;SDS011;62805;44.644;10.942;2023-02-01T08:23:31;20.98;;;4.95;;
74369;SDS011;62805;44.644;10.942;2023-02-01T08:26:10;18.52;;;5.25;;
74369;SDS011;62805;44.644;10.942;2023-02-01T08:28:47;13.02;;;4.90;;
74369;SDS011;62805;44.644;10.942;2023-02-01T08:31:15;22.05;;;6.07;;
74369;SDS011;62805;44.644;10.942;2023-02-01T08:33:42;16.58;;;7.80;;
74369;SDS011;62805;44.644;10.942;2023-02-01T08:36:10;15.43;;;7.50;;
74369;SDS011;62805;44.644;10.942;2023-02-01T08:38:36;20.35;;;9.07;;
74369;SDS011;62805;44.644;10.942;2023-02-01T08:41:13;19.35;;;9.88;;
74369;SDS011;62805;44.644;10.942;2023-02-01T08:43:41;30.10;;;10.10;;
74369;SDS011;62805;44.644;10.942;2023-02-01T08:46:07;19.10;;;8.77;;
74369;SDS011;62805;44.644;10.942;2023-02-01T08:48:33;21.58;;;10.75;;
74369;SDS011;62805;44.644;10.942;2023-02-01T08:51:04;23.30;;;11.23;;
74369;SDS011;62805;44.644;10.942;2023-02-01T08:53:31;19.67;;;9.98;;
74369;SDS011;62805;44.644;10.942;2023-02-01T08:55:57;21.67;;;10.98;;
74369;SDS011;62805;44.644;10.942;2023-02-01T08:58:22;26.95;;;11.25;;
74369;SDS011;62805;44.644;10.942;2023-02-01T09:00:48;23.00;;;10.45;;
74369;SDS011;62805;44.644;10.942;2023-02-01T09:03:14;24.35;;;10.55;;
74369;SDS011;62805;44.644;10.942;2023-02-01T09:05:40;21.02;;;10.63;;
74369;SDS011;62805;44.644;10.942;2023-02-01T09:08:06;26.95;;;10.20;;
74369;SDS011;62805;44.644;10.942;2023-02-01T09:10:32;21.25;;;11.02;;
74369;SDS011;62805;44.644;10.942;2023-02-01T09:12:57;21.83;;;11.48;;
74369;SDS011;62805;44.644;10.942;2023-02-01T09:15:23;21.90;;;10.87;;
74369;SDS011;62805;44.644;10.942;2023-02-01T09:17:48;24.95;;;11.50;;
74369;SDS011;62805;44.644;10.942;2023-02-01T09:20:14;28.15;;;11.75;;
74369;SDS011;62805;44.644;10.942;2023-02-01T09:22:39;21.33;;;11.45;;
74369;SDS011;62805;44.644;10.942;2023-02-01T09:25:05;27.67;;;11.85;;
74369;SDS011;62805;44.644;10.942;2023-02-01T09:27:31;21.25;;;11.30;;
74369;SDS011;62805;44.644;10.942;2023-02-01T09:29:57;23.55;;;12.30;;
74369;SDS011;62805;44.644;10.942;2023-02-01T09:32:22;24.02;;;11.13;;
74369;SDS011;62805;44.644;10.942;2023-02-01T09:34:49;20.35;;;11.63;;
74369;SDS011;62805;44.644;10.942;2023-02-01T09:37:14;24.88;;;12.23;;
74369;SDS011;62805;44.644;10.942;2023-02-01T09:39:40;24.08;;;12.00;;
74369;SDS011;62805;44.644;10.942;2023-02-01T09:45:11;23.05;;;12.05;;
74369;SDS011;62805;44.644;10.942;2023-02-01T09:47:43;32.85;;;12.93;;
74369;SDS011;62805;44.644;10.942;2023-02-01T09:50:18;23.77;;;12.65;;
74369;SDS011;62805;44.644;10.942;2023-02-01T09:52:54;25.73;;;12.77;;
74369;SDS011;62805;44.644;10.942;2023-02-01T09:55:34;25.42;;;12.55;;
74369;SDS011;62805;44.644;10.942;2023-02-01T09:58:16;29.65;;;13.15;;
74369;SDS011;62805;44.644;10.942;2023-02-01T10:00:52;23.55;;;12.30;;
74369;SDS011;62805;44.644;10.942;2023-02-01T10:17:03;28.30;;;13.57;;
74369;SDS011;62805;44.644;10.942;2023-02-01T10:25:23;29.48;;;13.40;;
74369;SDS011;62805;44.644;10.942;2023-02-01T10:27:51;32.22;;;14.07;;
74369;SDS011;62805;44.644;10.942;2023-02-01T10:30:21;39.63;;;16.85;;
74369;SDS011;62805;44.644;10.942;2023-02-01T10:35:40;33.60;;;14.85;;
74369;SDS011;62805;44.644;10.942;2023-02-01T10:38:09;34.58;;;16.13;;
74369;SDS011;62805;44.644;10.942;2023-02-01T10:40:43;32.00;;;12.63;;
74369;SDS011;62805;44.644;10.942;2023-02-01T10:43:08;28.25;;;13.30;;
74369;SDS011;62805;44.644;10.942;2023-02-01T10:45:34;33.53;;;14.88;;
74369;SDS011;62805;44.644;10.942;2023-02-01T10:48:00;37.13;;;15.48;;
74369;SDS011;62805;44.644;10.942;2023-02-01T10:53:10;38.50;;;17.33;;
74369;SDS011;62805;44.644;10.942;2023-02-01T10:55:40;37.70;;;16.55;;
74369;SDS011;62805;44.644;10.942;2023-02-01T11:01:08;35.35;;;17.13;;
74369;SDS011;62805;44.644;10.942;2023-02-01T11:08:51;35.92;;;16.45;;
74369;SDS011;62805;44.644;10.942;2023-02-01T11:11:18;31.23;;;14.27;;
74369;SDS011;62805;44.644;10.942;2023-02-01T11:13:44;33.60;;;15.60;;
74369;SDS011;62805;44.644;10.942;2023-02-01T11:16:11;34.92;;;16.17;;
74369;SDS011;62805;44.644;10.942;2023-02-01T11:18:38;36.90;;;16.27;;
74369;SDS011;62805;44.644;10.942;2023-02-01T11:21:04;31.85;;;15.27;;
74369;SDS011;62805;44.644;10.942;2023-02-01T11:23:31;41.03;;;15.20;;
74369;SDS011;62805;44.644;10.942;2023-02-01T11:26:07;38.78;;;16.35;;
74369;SDS011;62805;44.644;10.942;2023-02-01T11:28:35;30.77;;;14.70;;
74369;SDS011;62805;44.644;10.942;2023-02-01T11:31:04;26.10;;;12.98;;
74369;SDS011;62805;44.644;10.942;2023-02-01T11:33:33;28.70;;;12.93;;
74369;SDS011;62805;44.644;10.942;2023-02-01T11:36:05;24.75;;;10.45;;
74369;SDS011;62805;44.644;10.942;2023-02-01T11:38:33;25.33;;;11.43;;
74369;SDS011;62805;44.644;10.942;2023-02-01T11:41:14;33.00;;;12.88;;
74369;SDS011;62805;44.644;10.942;2023-02-01T11:43:55;28.00;;;12.45;;
74369;SDS011;62805;44.644;10.942;2023-02-01T11:46:22;28.17;;;12.45;;
74369;SDS011;62805;44.644;10.942;2023-02-01T11:48:53;30.55;;;11.27;;
74369;SDS011;62805;44.644;10.942;2023-02-01T11:56:57;29.05;;;12.23;;
74369;SDS011;62805;44.644;10.942;2023-02-01T11:59:52;23.70;;;9.85;;
74369;SDS011;62805;44.644;10.942;2023-02-01T12:16:40;21.02;;;8.98;;
74369;SDS011;62805;44.644;10.942;2023-02-01T12:19:20;21.33;;;8.98;;
74369;SDS011;62805;44.644;10.942;2023-02-01T12:25:10;17.95;;;8.93;;
74369;SDS011;62805;44.644;10.942;2023-02-01T12:33:27;17.25;;;7.38;;
74369;SDS011;62805;44.644;10.942;2023-02-01T12:36:12;20.50;;;7.97;;
74369;SDS011;62805;44.644;10.942;2023-02-01T12:38:46;16.85;;;8.30;;
74369;SDS011;62805;44.644;10.942;2023-02-01T12:52:06;22.07;;;8.87;;
74369;SDS011;62805;44.644;10.942;2023-02-01T12:54:45;20.35;;;8.02;;
74369;SDS011;62805;44.644;10.942;2023-02-01T12:57:32;17.63;;;8.48;;
74369;SDS011;62805;44.644;10.942;2023-02-01T13:00:12;15.93;;;7.22;;
74369;SDS011;62805;44.644;10.942;2023-02-01T13:02:44;18.27;;;8.23;;
74369;SDS011;62805;44.644;10.942;2023-02-01T13:05:19;21.98;;;7.63;;
74369;SDS011;62805;44.644;10.942;2023-02-01T13:12:50;20.20;;;9.60;;
74369;SDS011;62805;44.644;10.942;2023-02-01T13:15:28;22.73;;;9.02;;
74369;SDS011;62805;44.644;10.942;2023-02-01T13:18:16;22.73;;;8.55;;
74369;SDS011;62805;44.644;10.942;2023-02-01T13:20:50;19.98;;;8.88;;
74369;SDS011;62805;44.644;10.942;2023-02-01T13:23:25;20.80;;;8.40;;
74369;SDS011;62805;44.644;10.942;2023-02-01T13:25:53;19.08;;;8.20;;
74369;SDS011;62805;44.644;10.942;2023-02-01T13:42:25;21.67;;;9.43;;
74369;SDS011;62805;44.644;10.942;2023-02-01T13:44:55;21.60;;;10.05;;
74369;SDS011;62805;44.644;10.942;2023-02-01T13:47:26;19.85;;;8.93;;
74369;SDS011;62805;44.644;10.942;2023-02-01T13:50:11;22.58;;;10.13;;
74369;SDS011;62805;44.644;10.942;2023-02-01T13:52:43;19.88;;;9.95;;
74369;SDS011;62805;44.644;10.942;2023-02-01T13:57:40;22.05;;;9.75;;
74369;SDS011;62805;44.644;10.942;2023-02-01T14:05:09;19.50;;;9.60;;
74369;SDS011;62805;44.644;10.942;2023-02-01T14:13:23;20.30;;;9.10;;
74369;SDS011;62805;44.644;10.942;2023-02-01T14:26:19;22.43;;;9.37;;
74369;SDS011;62805;44.644;10.942;2023-02-01T14:31:26;18.05;;;9.07;;
74369;SDS011;62805;44.644;10.942;2023-02-01T14:34:10;19.40;;;9.35;;
74369;SDS011;62805;44.644;10.942;2023-02-01T14:39:04;24.20;;;9.77;;
74369;SDS011;62805;44.644;10.942;2023-02-01T14:41:31;17.08;;;8.68;;
74369;SDS011;62805;44.644;10.942;2023-02-01T14:49:33;20.10;;;9.43;;
74369;SDS011;62805;44.644;10.942;2023-02-01T14:52:02;18.30;;;9.38;;
74369;SDS011;62805;44.644;10.942;2023-02-01T14:54:31;20.63;;;9.90;;
74369;SDS011;62805;44.644;10.942;2023-02-01T14:56:57;23.58;;;10.82;;
74369;SDS011;62805;44.644;10.942;2023-02-01T14:59:23;22.25;;;9.93;;
74369;SDS011;62805;44.644;10.942;2023-02-01T15:01:52;23.27;;;10.68;;
74369;SDS011;62805;44.644;10.942;2023-02-01T15:04:19;19.58;;;9.13;;
74369;SDS011;62805;44.644;10.942;2023-02-01T15:06:47;25.10;;;9.70;;
74369;SDS011;62805;44.644;10.942;2023-02-01T15:09:28;19.35;;;9.40;;
74369;SDS011;62805;44.644;10.942;2023-02-01T15:14:20;21.60;;;10.47;;
74369;SDS011;62805;44.644;10.942;2023-02-01T15:16:45;25.45;;;11.07;;
74369;SDS011;62805;44.644;10.942;2023-02-01T15:19:18;23.58;;;10.93;;
74369;SDS011;62805;44.644;10.942;2023-02-01T15:21:45;20.75;;;10.65;;
74369;SDS011;62805;44.644;10.942;2023-02-01T15:24:13;19.05;;;10.35;;
74369;SDS011;62805;44.644;10.942;2023-02-01T15:26:45;22.00;;;10.93;;
74369;SDS011;62805;44.644;10.942;2023-02-01T15:29:11;23.50;;;10.90;;
74369;SDS011;62805;44.644;10.942;2023-02-01T15:31:42;21.73;;;9.63;;
74369;SDS011;62805;44.644;10.942;2023-02-01T15:34:10;21.10;;;10.32;;
74369;SDS011;62805;44.644;10.942;2023-02-01T15:36:36;24.13;;;10.27;;
74369;SDS011;62805;44.644;10.942;2023-02-01T15:39:16;22.58;;;10.25;;
74369;SDS011;62805;44.644;10.942;2023-02-01T15:41:49;22.90;;;11.00;;
74369;SDS011;62805;44.644;10.942;2023-02-01T15:44:20;22.55;;;10.10;;
74369;SDS011;62805;44.644;10.942;2023-02-01T15:46:53;22.30;;;10.25;;
74369;SDS011;62805;44.644;10.942;2023-02-01T15:49:20;19.58;;;9.70;;
74369;SDS011;62805;44.644;10.942;2023-02-01T15:51:48;19.65;;;10.38;;
74369;SDS011;62805;44.644;10.942;2023-02-01T15:54:19;21.70;;;10.93;;
74369;SDS011;62805;44.644;10.942;2023-02-01T15:56:49;25.70;;;10.82;;
74369;SDS011;62805;44.644;10.942;2023-02-01T15:59:19;26.02;;;10.63;;
74369;SDS011;62805;44.644;10.942;2023-02-01T16:01:50;26.33;;;11.70;;
74369;SDS011;62805;44.644;10.942;2023-02-01T16:04:20;24.13;;;10.90;;
74369;SDS011;62805;44.644;10.942;2023-02-01T16:06:53;25.52;;;11.15;;
74369;SDS011;62805;44.644;10.942;2023-02-01T16:09:21;21.17;;;11.05;;
74369;SDS011;62805;44.644;10.942;2023-02-01T16:11:58;21.75;;;10.88;;
74369;SDS011;62805;44.644;10.942;2023-02-01T16:14:25;29.27;;;12.05;;
74369;SDS011;62805;44.644;10.942;2023-02-01T16:16:51;25.38;;;10.82;;
74369;SDS011;62805;44.644;10.942;2023-02-01T16:19:18;26.27;;;11.70;;
74369;SDS011;62805;44.644;10.942;2023-02-01T16:21:44;27.77;;;11.77;;
74369;SDS011;62805;44.644;10.942;2023-02-01T16:24:10;23.08;;;11.05;;
74369;SDS011;62805;44.644;10.942;2023-02-01T16:26:36;25.63;;;11.77;;
74369;SDS011;62805;44.644;10.942;2023-02-01T16:29:03;26.98;;;11.73;;
74369;SDS011;62805;44.644;10.942;2023-02-01T16:31:33;28.02;;;11.95;;
74369;SDS011;62805;44.644;10.942;2023-02-01T16:34:00;24.65;;;11.70;;
74369;SDS011;62805;44.644;10.942;2023-02-01T16:36:25;25.92;;;11.10;;
74369;SDS011;62805;44.644;10.942;2023-02-01T16:38:52;30.35;;;12.23;;
74369;SDS011;62805;44.644;10.942;2023-02-01T16:41:19;25.25;;;11.90;;
74369;SDS011;62805;44.644;10.942;2023-02-01T16:43:45;26.75;;;11.75;;
74369;SDS011;62805;44.644;10.942;2023-02-01T16:46:16;29.67;;;11.90;;
74369;SDS011;62805;44.644;10.942;2023-02-01T16:48:50;27.50;;;12.20;;
74369;SDS011;62805;44.644;10.942;2023-02-01T16:53:44;27.47;;;11.83;;
74369;SDS011;62805;44.644;10.942;2023-02-01T16:56:18;22.63;;;12.32;;
74369;SDS011;62805;44.644;10.942;2023-02-01T16:58:48;30.48;;;12.82;;
74369;SDS011;62805;44.644;10.942;2023-02-01T17:01:14;25.25;;;12.43;;
74369;SDS011;62805;44.644;10.942;2023-02-01T17:03:41;29.17;;;12.05;;
74369;SDS011;62805;44.644;10.942;2023-02-01T17:06:09;31.38;;;12.18;;
74369;SDS011;62805;44.644;10.942;2023-02-01T17:08:36;28.20;;;11.88;;
74369;SDS011;62805;44.644;10.942;2023-02-01T17:11:04;35.95;;;14.55;;
74369;SDS011;62805;44.644;10.942;2023-02-01T17:13:30;37.75;;;16.90;;
74369;SDS011;62805;44.644;10.942;2023-02-01T17:15:58;26.70;;;12.98;;
74369;SDS011;62805;44.644;10.942;2023-02-01T17:18:24;27.92;;;12.65;;
74369;SDS011;62805;44.644;10.942;2023-02-01T17:20:55;25.63;;;13.95;;